sensor_id;sensor_type;location;lat;lon;timestamp;temperature;humidity
22532;DHT22;11432;46.924;7.114;2023-12-14T09:46:02;7.70;99.90
22532;DHT22;11432;46.924;7.114;2023-12-14T09:50:40;6.20;99.90
22532;DHT22;11432;46.924;7.114;2023-12-14T09:53:07;7.80;99.90
22532;DHT22;11432;46.924;7.114;2023-12-14T09:55:33;7.80;99.90
22532;DHT22;11432;46.924;7.114;2023-12-14T09:57:59;7.80;99.90
22532;DHT22;11432;46.924;7.114;2023-12-14T10:00:35;7.80;99.90
22532;DHT22;11432;46.924;7.114;2023-12-14T10:03:26;7.80;99.90
22532;DHT22;11432;46.924;7.114;2023-12-14T10:05:54;7.80;99.90
22532;DHT22;11432;46.924;7.114;2023-12-14T10:08:20;7.80;99.90
22532;DHT22;11432;46.924;7.114;2023-12-14T10:10:48;7.80;99.90
22532;DHT22;11432;46.924;7.114;2023-12-14T10:13:15;7.70;99.90
22532;DHT22;11432;46.924;7.114;2023-12-14T10:15:49;7.80;99.90
22532;DHT22;11432;46.924;7.114;2023-12-14T10:18:22;7.70;99.90
22532;DHT22;11432;46.924;7.114;2023-12-14T10:20:50;7.60;99.90
22532;DHT22;11432;46.924;7.114;2023-12-14T10:23:15;7.50;99.90
22532;DHT22;11432;46.924;7.114;2023-12-14T10:25:42;7.50;99.90
22532;DHT22;11432;46.924;7.114;2023-12-14T10:28:08;7.60;99.90
22532;DHT22;11432;46.924;7.114;2023-12-14T10:30:33;7.50;99.90
22532;DHT22;11432;46.924;7.114;2023-12-14T10:33:00;7.60;99.90
22532;DHT22;11432;46.924;7.114;2023-12-14T10:35:26;7.60;99.90
22532;DHT22;11432;46.924;7.114;2023-12-14T10:37:52;7.60;99.90
22532;DHT22;11432;46.924;7.114;2023-12-14T10:40:19;7.70;99.90
22532;DHT22;11432;46.924;7.114;2023-12-14T10:42:46;7.70;99.90
22532;DHT22;11432;46.924;7.114;2023-12-14T10:45:13;7.60;99.90
22532;DHT22;11432;46.924;7.114;2023-12-14T10:47:45;7.60;99.90
22532;DHT22;11432;46.924;7.114;2023-12-14T10:50:12;7.50;99.90
22532;DHT22;11432;46.924;7.114;2023-12-14T10:52:41;7.50;99.90
22532;DHT22;11432;46.924;7.114;2023-12-14T10:55:09;7.50;99.90
22532;DHT22;11432;46.924;7.114;2023-12-14T10:57:36;7.40;99.90
22532;DHT22;11432;46.924;7.114;2023-12-14T11:00:03;7.50;99.90
22532;DHT22;11432;46.924;7.114;2023-12-14T11:02:30;7.50;99.90
22532;DHT22;11432;46.924;7.114;2023-12-14T11:05:02;7.50;99.90
22532;DHT22;11432;46.924;7.114;2023-12-14T11:07:50;7.60;99.90
22532;DHT22;11432;46.924;7.114;2023-12-14T11:10:25;7.70;99.90
22532;DHT22;11432;46.924;7.114;2023-12-14T11:13:02;7.90;99.90
22532;DHT22;11432;46.924;7.114;2023-12-14T11:15:29;8.10;99.90
22532;DHT22;11432;46.924;7.114;2023-12-14T11:23:17;8.10;99.90
22532;DHT22;11432;46.924;7.114;2023-12-14T11:25:48;8.30;99.90
22532;DHT22;11432;46.924;7.114;2023-12-14T11:28:14;8.20;99.90
22532;DHT22;11432;46.924;7.114;2023-12-14T11:30:40;8.20;99.90
22532;DHT22;11432;46.924;7.114;2023-12-14T11:33:05;8.20;99.90
22532;DHT22;11432;46.924;7.114;2023-12-14T11:35:31;8.30;99.90
22532;DHT22;11432;46.924;7.114;2023-12-14T11:37:56;8.30;99.90
22532;DHT22;11432;46.924;7.114;2023-12-14T11:40:24;8.20;99.90
22532;DHT22;11432;46.924;7.114;2023-12-14T11:42:58;8.20;99.90
22532;DHT22;11432;46.924;7.114;2023-12-14T11:45:25;8.10;99.90
22532;DHT22;11432;46.924;7.114;2023-12-14T11:47:51;8.00;99.90
22532;DHT22;11432;46.924;7.114;2023-12-14T11:50:17;8.00;99.90
22532;DHT22;11432;46.924;7.114;2023-12-14T11:52:43;8.20;99.90
22532;DHT22;11432;46.924;7.114;2023-12-14T11:55:12;8.00;99.90
22532;DHT22;11432;46.924;7.114;2023-12-14T11:57:39;8.00;99.90
22532;DHT22;11432;46.924;7.114;2023-12-14T12:00:11;8.00;99.90
22532;DHT22;11432;46.924;7.114;2023-12-14T12:02:37;8.00;99.90
22532;DHT22;11432;46.924;7.114;2023-12-14T12:05:03;7.90;99.90
22532;DHT22;11432;46.924;7.114;2023-12-14T12:07:29;8.00;99.90
22532;DHT22;11432;46.924;7.114;2023-12-14T12:09:54;8.00;99.90
22532;DHT22;11432;46.924;7.114;2023-12-14T12:12:21;8.10;99.90
22532;DHT22;11432;46.924;7.114;2023-12-14T12:14:46;8.10;99.90
22532;DHT22;11432;46.924;7.114;2023-12-14T12:17:14;8.00;99.90
22532;DHT22;11432;46.924;7.114;2023-12-14T12:19:41;8.00;99.90
22532;DHT22;11432;46.924;7.114;2023-12-14T12:22:08;8.00;99.90
22532;DHT22;11432;46.924;7.114;2023-12-14T12:24:34;7.90;99.90
22532;DHT22;11432;46.924;7.114;2023-12-14T12:26:59;7.90;99.90
22532;DHT22;11432;46.924;7.114;2023-12-14T12:29:25;8.00;99.90
22532;DHT22;11432;46.924;7.114;2023-12-14T12:31:51;7.90;99.90
22532;DHT22;11432;46.924;7.114;2023-12-14T12:34:17;7.90;99.90
22532;DHT22;11432;46.924;7.114;2023-12-14T12:36:43;8.00;99.90
22532;DHT22;11432;46.924;7.114;2023-12-14T12:39:09;7.90;99.90
22532;DHT22;11432;46.924;7.114;2023-12-14T12:41:35;7.90;99.90
22532;DHT22;11432;46.924;7.114;2023-12-14T12:44:04;8.00;99.90
22532;DHT22;11432;46.924;7.114;2023-12-14T12:46:34;8.00;99.90
22532;DHT22;11432;46.924;7.114;2023-12-14T12:49:02;8.00;99.90
22532;DHT22;11432;46.924;7.114;2023-12-14T12:51:28;8.10;99.90
22532;DHT22;11432;46.924;7.114;2023-12-14T12:53:57;8.20;99.90
22532;DHT22;11432;46.924;7.114;2023-12-14T12:56:24;8.10;99.90
22532;DHT22;11432;46.924;7.114;2023-12-14T12:58:50;8.20;99.90
22532;DHT22;11432;46.924;7.114;2023-12-14T13:01:19;8.10;99.90
22532;DHT22;11432;46.924;7.114;2023-12-14T13:03:45;8.10;99.90
22532;DHT22;11432;46.924;7.114;2023-12-14T13:06:11;8.10;99.90
22532;DHT22;11432;46.924;7.114;2023-12-14T13:08:36;8.10;99.90
22532;DHT22;11432;46.924;7.114;2023-12-14T13:11:02;8.10;99.90
22532;DHT22;11432;46.924;7.114;2023-12-14T13:13:27;8.10;99.90
22532;DHT22;11432;46.924;7.114;2023-12-14T13:15:53;8.20;99.90
22532;DHT22;11432;46.924;7.114;2023-12-14T13:18:19;8.30;99.90
22532;DHT22;11432;46.924;7.114;2023-12-14T13:20:44;8.30;99.90
22532;DHT22;11432;46.924;7.114;2023-12-14T13:23:10;8.30;99.90
22532;DHT22;11432;46.924;7.114;2023-12-14T13:25:35;8.30;99.90
22532;DHT22;11432;46.924;7.114;2023-12-14T13:28:02;8.20;99.90
22532;DHT22;11432;46.924;7.114;2023-12-14T13:30:29;8.30;99.90
22532;DHT22;11432;46.924;7.114;2023-12-14T13:32:56;8.40;99.90
22532;DHT22;11432;46.924;7.114;2023-12-14T13:35:21;8.50;99.90
22532;DHT22;11432;46.924;7.114;2023-12-14T13:37:50;8.50;99.90
22532;DHT22;11432;46.924;7.114;2023-12-14T13:40:15;8.50;99.90
22532;DHT22;11432;46.924;7.114;2023-12-14T13:42:42;8.50;99.90
22532;DHT22;11432;46.924;7.114;2023-12-14T13:45:08;8.50;99.90
22532;DHT22;11432;46.924;7.114;2023-12-14T13:47:34;8.60;99.90
22532;DHT22;11432;46.924;7.114;2023-12-14T13:49:59;8.60;99.90
22532;DHT22;11432;46.924;7.114;2023-12-14T13:52:25;8.50;99.90
22532;DHT22;11432;46.924;7.114;2023-12-14T13:54:50;8.40;99.90
22532;DHT22;11432;46.924;7.114;2023-12-14T13:57:17;8.30;99.90
22532;DHT22;11432;46.924;7.114;2023-12-14T13:59:42;8.30;99.90
22532;DHT22;11432;46.924;7.114;2023-12-14T14:02:08;8.40;99.90
22532;DHT22;11432;46.924;7.114;2023-12-14T14:04:33;8.40;99.90
22532;DHT22;11432;46.924;7.114;2023-12-14T14:06:59;8.40;99.90
22532;DHT22;11432;46.924;7.114;2023-12-14T14:09:24;8.50;99.90
22532;DHT22;11432;46.924;7.114;2023-12-14T14:11:51;8.50;99.90
22532;DHT22;11432;46.924;7.114;2023-12-14T14:14:16;8.50;99.90
22532;DHT22;11432;46.924;7.114;2023-12-14T14:16:42;8.40;99.90
22532;DHT22;11432;46.924;7.114;2023-12-14T14:19:08;8.40;99.90
22532;DHT22;11432;46.924;7.114;2023-12-14T14:21:33;8.30;99.90
22532;DHT22;11432;46.924;7.114;2023-12-14T14:23:59;8.30;99.90
22532;DHT22;11432;46.924;7.114;2023-12-14T14:26:24;8.10;99.90
22532;DHT22;11432;46.924;7.114;2023-12-14T14:28:50;8.00;99.90
22532;DHT22;11432;46.924;7.114;2023-12-14T14:31:15;8.10;99.90
22532;DHT22;11432;46.924;7.114;2023-12-14T14:33:41;8.20;99.90
22532;DHT22;11432;46.924;7.114;2023-12-14T14:36:07;8.10;99.90
22532;DHT22;11432;46.924;7.114;2023-12-14T14:38:33;8.10;99.90
22532;DHT22;11432;46.924;7.114;2023-12-14T14:40:59;8.10;99.90
22532;DHT22;11432;46.924;7.114;2023-12-14T14:43:25;8.00;99.90
22532;DHT22;11432;46.924;7.114;2023-12-14T14:45:50;7.90;99.90
22532;DHT22;11432;46.924;7.114;2023-12-14T14:48:16;7.90;99.90
22532;DHT22;11432;46.924;7.114;2023-12-14T14:50:42;7.90;99.90
22532;DHT22;11432;46.924;7.114;2023-12-14T14:53:08;7.80;99.90
22532;DHT22;11432;46.924;7.114;2023-12-14T14:55:33;7.80;99.90
22532;DHT22;11432;46.924;7.114;2023-12-14T14:58:00;7.80;99.90
22532;DHT22;11432;46.924;7.114;2023-12-14T15:00:25;7.80;99.90
22532;DHT22;11432;46.924;7.114;2023-12-14T15:02:52;7.80;99.90
22532;DHT22;11432;46.924;7.114;2023-12-14T15:05:17;7.70;99.90
22532;DHT22;11432;46.924;7.114;2023-12-14T15:07:43;7.70;99.90
22532;DHT22;11432;46.924;7.114;2023-12-14T15:10:08;7.70;99.90
22532;DHT22;11432;46.924;7.114;2023-12-14T15:12:34;7.60;99.90
22532;DHT22;11432;46.924;7.114;2023-12-14T15:15:00;7.60;99.90
22532;DHT22;11432;46.924;7.114;2023-12-14T15:17:26;7.50;1.00
22532;DHT22;11432;46.924;7.114;2023-12-14T15:19:51;7.50;1.00
22532;DHT22;11432;46.924;7.114;2023-12-14T15:22:18;7.50;1.00
22532;DHT22;11432;46.924;7.114;2023-12-14T15:24:43;7.50;1.00
22532;DHT22;11432;46.924;7.114;2023-12-14T15:27:09;7.50;1.00
22532;DHT22;11432;46.924;7.114;2023-12-14T15:29:35;7.50;1.00
22532;DHT22;11432;46.924;7.114;2023-12-14T15:32:00;7.40;1.00
22532;DHT22;11432;46.924;7.114;2023-12-14T15:34:26;7.40;1.00
22532;DHT22;11432;46.924;7.114;2023-12-14T15:36:51;7.40;1.00
22532;DHT22;11432;46.924;7.114;2023-12-14T15:39:17;7.40;1.00
22532;DHT22;11432;46.924;7.114;2023-12-14T15:41:43;7.40;1.00
22532;DHT22;11432;46.924;7.114;2023-12-14T15:44:08;7.30;1.00
22532;DHT22;11432;46.924;7.114;2023-12-14T15:46:34;7.30;1.00
22532;DHT22;11432;46.924;7.114;2023-12-14T15:48:59;7.30;1.00
22532;DHT22;11432;46.924;7.114;2023-12-14T15:51:25;7.20;1.00
22532;DHT22;11432;46.924;7.114;2023-12-14T15:53:52;7.20;1.00
22532;DHT22;11432;46.924;7.114;2023-12-14T15:56:18;7.20;1.00
22532;DHT22;11432;46.924;7.114;2023-12-14T15:58:47;7.20;1.00
22532;DHT22;11432;46.924;7.114;2023-12-14T16:01:13;7.20;1.00
22532;DHT22;11432;46.924;7.114;2023-12-14T16:03:40;7.20;1.00
22532;DHT22;11432;46.924;7.114;2023-12-14T16:06:06;7.20;1.00
22532;DHT22;11432;46.924;7.114;2023-12-14T16:08:32;7.20;1.00
22532;DHT22;11432;46.924;7.114;2023-12-14T16:10:58;7.20;23.20
22532;DHT22;11432;46.924;7.114;2023-12-14T16:13:24;7.20;23.90
22532;DHT22;11432;46.924;7.114;2023-12-14T16:15:49;7.20;14.20
22532;DHT22;11432;46.924;7.114;2023-12-14T16:18:15;7.10;60.60
22532;DHT22;11432;46.924;7.114;2023-12-14T16:20:40;7.10;99.90
22532;DHT22;11432;46.924;7.114;2023-12-14T16:23:06;7.10;99.90
22532;DHT22;11432;46.924;7.114;2023-12-14T16:25:32;7.10;99.90
22532;DHT22;11432;46.924;7.114;2023-12-14T16:27:57;7.10;99.90
22532;DHT22;11432;46.924;7.114;2023-12-14T16:30:23;7.10;99.90
22532;DHT22;11432;46.924;7.114;2023-12-14T16:32:48;7.10;99.90
22532;DHT22;11432;46.924;7.114;2023-12-14T16:35:14;7.10;99.90
22532;DHT22;11432;46.924;7.114;2023-12-14T16:37:40;7.10;99.90
22532;DHT22;11432;46.924;7.114;2023-12-14T16:40:06;7.10;99.90
22532;DHT22;11432;46.924;7.114;2023-12-14T16:42:32;7.00;99.90
22532;DHT22;11432;46.924;7.114;2023-12-14T16:44:58;7.10;99.90
22532;DHT22;11432;46.924;7.114;2023-12-14T16:47:23;7.00;99.90
22532;DHT22;11432;46.924;7.114;2023-12-14T16:49:49;7.00;99.90
22532;DHT22;11432;46.924;7.114;2023-12-14T16:52:14;7.00;99.90
22532;DHT22;11432;46.924;7.114;2023-12-14T16:54:43;7.00;99.90
22532;DHT22;11432;46.924;7.114;2023-12-14T16:57:09;7.00;99.90
22532;DHT22;11432;46.924;7.114;2023-12-14T16:59:35;7.00;99.90
22532;DHT22;11432;46.924;7.114;2023-12-14T17:02:02;7.00;99.90
22532;DHT22;11432;46.924;7.114;2023-12-14T17:04:28;7.00;99.90
22532;DHT22;11432;46.924;7.114;2023-12-14T17:06:53;7.00;99.90
22532;DHT22;11432;46.924;7.114;2023-12-14T17:09:19;6.90;99.90
22532;DHT22;11432;46.924;7.114;2023-12-14T17:11:45;6.90;99.90
22532;DHT22;11432;46.924;7.114;2023-12-14T17:14:10;7.00;99.90
22532;DHT22;11432;46.924;7.114;2023-12-14T17:16:38;7.00;99.90
22532;DHT22;11432;46.924;7.114;2023-12-14T17:19:04;7.00;99.90
22532;DHT22;11432;46.924;7.114;2023-12-14T17:21:30;7.00;99.90
22532;DHT22;11432;46.924;7.114;2023-12-14T17:23:55;7.00;99.90
22532;DHT22;11432;46.924;7.114;2023-12-14T17:26:22;6.90;99.90
22532;DHT22;11432;46.924;7.114;2023-12-14T17:28:52;6.90;99.90
22532;DHT22;11432;46.924;7.114;2023-12-14T17:31:20;6.90;99.90
22532;DHT22;11432;46.924;7.114;2023-12-14T17:33:46;6.90;1.00
22532;DHT22;11432;46.924;7.114;2023-12-14T17:36:12;6.90;99.90
22532;DHT22;11432;46.924;7.114;2023-12-14T17:38:39;6.90;99.90
22532;DHT22;11432;46.924;7.114;2023-12-14T17:41:09;6.90;99.90
22532;DHT22;11432;46.924;7.114;2023-12-14T17:43:36;6.90;1.00
22532;DHT22;11432;46.924;7.114;2023-12-14T17:46:02;6.90;1.00
22532;DHT22;11432;46.924;7.114;2023-12-14T17:48:28;6.90;1.00
22532;DHT22;11432;46.924;7.114;2023-12-14T17:50:54;6.90;1.00
22532;DHT22;11432;46.924;7.114;2023-12-14T17:53:21;6.90;1.00
22532;DHT22;11432;46.924;7.114;2023-12-14T17:55:47;6.90;1.00
22532;DHT22;11432;46.924;7.114;2023-12-14T17:58:12;6.90;1.00
22532;DHT22;11432;46.924;7.114;2023-12-14T18:00:38;6.80;1.00
22532;DHT22;11432;46.924;7.114;2023-12-14T18:03:04;6.80;1.00
22532;DHT22;11432;46.924;7.114;2023-12-14T18:05:30;6.80;1.00
22532;DHT22;11432;46.924;7.114;2023-12-14T18:07:55;6.70;1.00
22532;DHT22;11432;46.924;7.114;2023-12-14T18:10:21;6.70;1.00
22532;DHT22;11432;46.924;7.114;2023-12-14T18:12:50;6.80;1.00
22532;DHT22;11432;46.924;7.114;2023-12-14T18:15:16;6.80;1.00
22532;DHT22;11432;46.924;7.114;2023-12-14T18:17:42;6.70;1.00
22532;DHT22;11432;46.924;7.114;2023-12-14T18:20:08;6.80;1.00
22532;DHT22;11432;46.924;7.114;2023-12-14T18:22:33;6.80;1.00
22532;DHT22;11432;46.924;7.114;2023-12-14T18:25:00;6.80;1.00
22532;DHT22;11432;46.924;7.114;2023-12-14T18:27:26;6.80;1.00
22532;DHT22;11432;46.924;7.114;2023-12-14T18:29:51;6.80;1.00
22532;DHT22;11432;46.924;7.114;2023-12-14T18:32:17;6.90;1.00
22532;DHT22;11432;46.924;7.114;2023-12-14T18:34:42;6.90;1.00
22532;DHT22;11432;46.924;7.114;2023-12-14T18:37:08;6.90;1.00
22532;DHT22;11432;46.924;7.114;2023-12-14T18:39:42;6.90;1.00
22532;DHT22;11432;46.924;7.114;2023-12-14T18:42:08;6.90;99.90
22532;DHT22;11432;46.924;7.114;2023-12-14T18:44:34;7.00;99.90
22532;DHT22;11432;46.924;7.114;2023-12-14T18:47:01;7.00;99.90
22532;DHT22;11432;46.924;7.114;2023-12-14T18:49:26;7.00;99.90
22532;DHT22;11432;46.924;7.114;2023-12-14T18:51:53;7.00;99.90
22532;DHT22;11432;46.924;7.114;2023-12-14T18:54:19;7.10;58.30
22532;DHT22;11432;46.924;7.114;2023-12-14T18:56:45;7.10;99.90
22532;DHT22;11432;46.924;7.114;2023-12-14T18:59:11;7.10;99.90
22532;DHT22;11432;46.924;7.114;2023-12-14T19:01:36;7.10;1.00
22532;DHT22;11432;46.924;7.114;2023-12-14T19:04:02;7.10;1.00
22532;DHT22;11432;46.924;7.114;2023-12-14T19:06:28;7.10;1.00
22532;DHT22;11432;46.924;7.114;2023-12-14T19:08:57;7.10;1.00
22532;DHT22;11432;46.924;7.114;2023-12-14T19:11:23;7.00;1.00
22532;DHT22;11432;46.924;7.114;2023-12-14T19:13:49;7.10;1.00
22532;DHT22;11432;46.924;7.114;2023-12-14T19:16:23;7.00;1.00
22532;DHT22;11432;46.924;7.114;2023-12-14T19:18:49;7.00;30.00
22532;DHT22;11432;46.924;7.114;2023-12-14T19:21:18;7.00;22.40
22532;DHT22;11432;46.924;7.114;2023-12-14T19:23:44;6.90;1.00
22532;DHT22;11432;46.924;7.114;2023-12-14T19:26:18;6.90;1.00
22532;DHT22;11432;46.924;7.114;2023-12-14T19:28:44;6.90;1.00
22532;DHT22;11432;46.924;7.114;2023-12-14T19:31:10;6.80;1.00
22532;DHT22;11432;46.924;7.114;2023-12-14T19:33:35;6.80;16.90
22532;DHT22;11432;46.924;7.114;2023-12-14T19:36:01;6.80;16.50
22532;DHT22;11432;46.924;7.114;2023-12-14T19:38:27;6.80;5.70
22532;DHT22;11432;46.924;7.114;2023-12-14T19:40:52;6.80;8.60
22532;DHT22;11432;46.924;7.114;2023-12-14T19:43:18;6.70;1.00
22532;DHT22;11432;46.924;7.114;2023-12-14T19:45:43;6.70;1.00
22532;DHT22;11432;46.924;7.114;2023-12-14T19:48:09;6.60;8.00
22532;DHT22;11432;46.924;7.114;2023-12-14T19:50:34;6.60;1.00
22532;DHT22;11432;46.924;7.114;2023-12-14T19:53:00;6.50;1.00
22532;DHT22;11432;46.924;7.114;2023-12-14T19:55:26;6.50;1.00
22532;DHT22;11432;46.924;7.114;2023-12-14T19:57:51;6.40;1.00
22532;DHT22;11432;46.924;7.114;2023-12-14T20:00:17;6.30;1.00
22532;DHT22;11432;46.924;7.114;2023-12-14T20:02:43;6.20;1.00
22532;DHT22;11432;46.924;7.114;2023-12-14T20:05:08;6.20;1.00
22532;DHT22;11432;46.924;7.114;2023-12-14T20:07:34;6.30;1.00
22532;DHT22;11432;46.924;7.114;2023-12-14T20:10:00;6.30;1.00
22532;DHT22;11432;46.924;7.114;2023-12-14T20:12:25;6.40;1.00
22532;DHT22;11432;46.924;7.114;2023-12-14T20:14:51;6.40;1.00
22532;DHT22;11432;46.924;7.114;2023-12-14T20:17:16;6.40;1.00
22532;DHT22;11432;46.924;7.114;2023-12-14T20:19:42;6.40;1.00
22532;DHT22;11432;46.924;7.114;2023-12-14T20:22:08;6.40;1.00
22532;DHT22;11432;46.924;7.114;2023-12-14T20:24:33;6.40;1.00
22532;DHT22;11432;46.924;7.114;2023-12-14T20:26:59;6.40;1.00
22532;DHT22;11432;46.924;7.114;2023-12-14T20:29:25;6.40;1.00
22532;DHT22;11432;46.924;7.114;2023-12-14T20:31:50;6.30;1.00
22532;DHT22;11432;46.924;7.114;2023-12-14T20:34:16;6.30;1.00
22532;DHT22;11432;46.924;7.114;2023-12-14T20:36:42;6.30;1.00
22532;DHT22;11432;46.924;7.114;2023-12-14T20:39:07;6.20;1.00
22532;DHT22;11432;46.924;7.114;2023-12-14T20:41:33;6.30;1.00
22532;DHT22;11432;46.924;7.114;2023-12-14T20:43:59;6.20;1.00
22532;DHT22;11432;46.924;7.114;2023-12-14T20:46:25;6.20;1.00
22532;DHT22;11432;46.924;7.114;2023-12-14T20:48:50;6.30;1.00
22532;DHT22;11432;46.924;7.114;2023-12-14T20:51:16;6.20;1.00
22532;DHT22;11432;46.924;7.114;2023-12-14T20:53:42;6.20;1.00
22532;DHT22;11432;46.924;7.114;2023-12-14T20:56:08;6.20;1.00
22532;DHT22;11432;46.924;7.114;2023-12-14T20:58:34;6.20;1.00
22532;DHT22;11432;46.924;7.114;2023-12-14T21:00:59;6.20;1.00
22532;DHT22;11432;46.924;7.114;2023-12-14T21:03:25;6.20;1.00
22532;DHT22;11432;46.924;7.114;2023-12-14T21:05:51;6.20;1.00
22532;DHT22;11432;46.924;7.114;2023-12-14T21:08:16;6.20;1.00
22532;DHT22;11432;46.924;7.114;2023-12-14T21:10:42;6.10;1.00
22532;DHT22;11432;46.924;7.114;2023-12-14T21:13:08;6.10;1.00
22532;DHT22;11432;46.924;7.114;2023-12-14T21:15:33;6.10;1.00
22532;DHT22;11432;46.924;7.114;2023-12-14T21:17:59;6.00;1.00
22532;DHT22;11432;46.924;7.114;2023-12-14T21:20:25;5.90;1.00
22532;DHT22;11432;46.924;7.114;2023-12-14T21:22:53;5.90;1.00
22532;DHT22;11432;46.924;7.114;2023-12-14T21:25:18;6.00;1.00
22532;DHT22;11432;46.924;7.114;2023-12-14T21:27:52;5.90;1.00
22532;DHT22;11432;46.924;7.114;2023-12-14T21:30:20;5.90;1.00
22532;DHT22;11432;46.924;7.114;2023-12-14T21:32:47;5.90;1.00
22532;DHT22;11432;46.924;7.114;2023-12-14T21:35:13;5.90;1.00
22532;DHT22;11432;46.924;7.114;2023-12-14T21:37:39;5.90;1.00
22532;DHT22;11432;46.924;7.114;2023-12-14T21:40:06;5.80;1.00
22532;DHT22;11432;46.924;7.114;2023-12-14T21:42:32;5.70;1.00
22532;DHT22;11432;46.924;7.114;2023-12-14T21:44:58;5.80;1.00
22532;DHT22;11432;46.924;7.114;2023-12-14T21:47:24;5.80;1.00
22532;DHT22;11432;46.924;7.114;2023-12-14T21:49:49;5.60;1.00
22532;DHT22;11432;46.924;7.114;2023-12-14T21:52:15;5.60;1.00
22532;DHT22;11432;46.924;7.114;2023-12-14T21:54:41;5.50;1.00
22532;DHT22;11432;46.924;7.114;2023-12-14T21:57:07;5.50;1.00
22532;DHT22;11432;46.924;7.114;2023-12-14T21:59:33;5.50;1.00
22532;DHT22;11432;46.924;7.114;2023-12-14T22:01:59;5.50;1.00
22532;DHT22;11432;46.924;7.114;2023-12-14T22:04:24;5.50;1.00
22532;DHT22;11432;46.924;7.114;2023-12-14T22:06:50;5.50;1.00
22532;DHT22;11432;46.924;7.114;2023-12-14T22:09:17;5.50;1.00
22532;DHT22;11432;46.924;7.114;2023-12-14T22:11:43;5.50;1.00
22532;DHT22;11432;46.924;7.114;2023-12-14T22:14:09;5.40;1.00
22532;DHT22;11432;46.924;7.114;2023-12-14T22:16:34;5.40;1.00
22532;DHT22;11432;46.924;7.114;2023-12-14T22:19:00;5.40;1.00
22532;DHT22;11432;46.924;7.114;2023-12-14T22:21:25;5.40;1.00
22532;DHT22;11432;46.924;7.114;2023-12-14T22:23:51;5.30;1.00
22532;DHT22;11432;46.924;7.114;2023-12-14T22:26:17;5.20;1.00
22532;DHT22;11432;46.924;7.114;2023-12-14T22:28:42;5.20;1.00
22532;DHT22;11432;46.924;7.114;2023-12-14T22:31:08;5.10;1.00
22532;DHT22;11432;46.924;7.114;2023-12-14T22:33:33;5.00;1.00
22532;DHT22;11432;46.924;7.114;2023-12-14T22:35:59;5.00;1.00
22532;DHT22;11432;46.924;7.114;2023-12-14T22:38:25;4.90;1.00
22532;DHT22;11432;46.924;7.114;2023-12-14T22:40:53;4.90;1.00
22532;DHT22;11432;46.924;7.114;2023-12-14T22:43:19;4.80;1.00
22532;DHT22;11432;46.924;7.114;2023-12-14T22:45:45;4.80;1.00
22532;DHT22;11432;46.924;7.114;2023-12-14T22:48:11;4.80;1.00
22532;DHT22;11432;46.924;7.114;2023-12-14T22:50:38;4.90;1.00
22532;DHT22;11432;46.924;7.114;2023-12-14T22:53:03;4.90;1.00
22532;DHT22;11432;46.924;7.114;2023-12-14T22:55:29;4.80;1.00
22532;DHT22;11432;46.924;7.114;2023-12-14T22:57:55;4.70;1.00
22532;DHT22;11432;46.924;7.114;2023-12-14T23:00:23;4.70;1.00
22532;DHT22;11432;46.924;7.114;2023-12-14T23:02:52;4.60;1.00
22532;DHT22;11432;46.924;7.114;2023-12-14T23:05:18;4.60;1.00
22532;DHT22;11432;46.924;7.114;2023-12-14T23:07:44;4.50;1.00
22532;DHT22;11432;46.924;7.114;2023-12-14T23:10:10;4.50;1.00
22532;DHT22;11432;46.924;7.114;2023-12-14T23:12:36;4.50;1.00
22532;DHT22;11432;46.924;7.114;2023-12-14T23:15:05;4.40;1.00
22532;DHT22;11432;46.924;7.114;2023-12-14T23:17:30;4.40;1.00
22532;DHT22;11432;46.924;7.114;2023-12-14T23:19:57;4.20;1.00
22532;DHT22;11432;46.924;7.114;2023-12-14T23:22:22;4.10;1.00
22532;DHT22;11432;46.924;7.114;2023-12-14T23:24:48;4.00;1.00
22532;DHT22;11432;46.924;7.114;2023-12-14T23:27:14;4.00;1.00
22532;DHT22;11432;46.924;7.114;2023-12-14T23:29:40;4.00;1.00
22532;DHT22;11432;46.924;7.114;2023-12-14T23:32:06;4.00;1.00
22532;DHT22;11432;46.924;7.114;2023-12-14T23:34:32;3.90;1.00
22532;DHT22;11432;46.924;7.114;2023-12-14T23:36:58;3.90;1.00
22532;DHT22;11432;46.924;7.114;2023-12-14T23:39:23;3.90;1.00
22532;DHT22;11432;46.924;7.114;2023-12-14T23:41:49;3.90;1.00
22532;DHT22;11432;46.924;7.114;2023-12-14T23:44:15;3.90;1.00
22532;DHT22;11432;46.924;7.114;2023-12-14T23:46:40;3.90;1.00
22532;DHT22;11432;46.924;7.114;2023-12-14T23:49:06;3.90;1.00
22532;DHT22;11432;46.924;7.114;2023-12-14T23:51:32;3.90;1.00
22532;DHT22;11432;46.924;7.114;2023-12-14T23:53:57;3.80;1.00
22532;DHT22;11432;46.924;7.114;2023-12-14T23:56:23;3.80;1.00
22532;DHT22;11432;46.924;7.114;2023-12-14T23:58:48;3.70;1.00
